createdAt,value
2023-07-16T00:00:39.603Z,97487.91
2023-07-16T00:03:07.230Z,97492.75
2023-07-16T00:05:34.796Z,97476.19
2023-07-16T00:08:02.270Z,97469.00
2023-07-16T00:10:31.126Z,97485.13
2023-07-16T00:12:58.717Z,97471.81
2023-07-16T00:15:26.189Z,97457.66
2023-07-16T00:17:53.945Z,97438.97
2023-07-16T00:20:21.405Z,97435.94
2023-07-16T00:22:49.050Z,97436.31
2023-07-16T00:25:16.799Z,97461.59
2023-07-16T00:27:45.765Z,97471.31
2023-07-16T00:30:13.481Z,97497.91
2023-07-16T00:32:41.125Z,97482.72
2023-07-16T00:35:09.494Z,97475.50
2023-07-16T00:37:37.036Z,97509.28
2023-07-16T00:40:05.621Z,97515.59
2023-07-16T00:42:33.289Z,97531.22
2023-07-16T00:45:02.170Z,97521.34
2023-07-16T00:47:29.806Z,97527.41
2023-07-16T00:49:57.419Z,97553.59
2023-07-16T00:52:25.187Z,97568.94
2023-07-16T00:54:52.587Z,97595.97
2023-07-16T00:57:20.082Z,97581.41
2023-07-16T00:59:47.570Z,97590.69
2023-07-16T01:02:16.426Z,97595.22
2023-07-16T01:04:44.248Z,97599.28
2023-07-16T01:07:15.039Z,97629.47
2023-07-16T01:09:44.464Z,97616.25
2023-07-16T01:12:12.980Z,97620.31
2023-07-16T01:14:42.388Z,97626.81
2023-07-16T01:17:09.900Z,97650.84
2023-07-16T01:19:38.858Z,97636.75
2023-07-16T01:22:36.391Z,97647.75
2023-07-16T01:25:15.442Z,97651.72
2023-07-16T01:28:02.466Z,97649.97
2023-07-16T01:30:32.600Z,97659.09
2023-07-16T01:33:00.969Z,97677.19
2023-07-16T01:35:28.960Z,97639.63
2023-07-16T01:37:56.533Z,97621.78
2023-07-16T01:40:24.068Z,97605.06
2023-07-16T01:42:51.552Z,97607.69
2023-07-16T01:45:19.121Z,97606.13
2023-07-16T01:50:24.618Z,97598.47
2023-07-16T01:52:52.174Z,97589.09
2023-07-16T01:55:19.663Z,97575.03
2023-07-16T01:57:47.143Z,97578.28
2023-07-16T02:00:14.996Z,97572.19
2023-07-16T02:02:42.626Z,97573.94
2023-07-16T02:05:11.965Z,97573.25
2023-07-16T02:07:39.513Z,97571.34
2023-07-16T02:10:07.902Z,97566.69
2023-07-16T02:12:36.513Z,97552.88
2023-07-16T02:15:04.283Z,97546.78
2023-07-16T02:17:31.677Z,97577.63
2023-07-16T02:19:59.264Z,97587.31
2023-07-16T02:22:28.138Z,97601.88
2023-07-16T02:24:55.654Z,97588.16
2023-07-16T02:27:23.241Z,97578.50
2023-07-16T02:29:50.734Z,97576.47
2023-07-16T02:32:18.356Z,97571.25
2023-07-16T02:34:45.878Z,97590.91
2023-07-16T02:37:13.424Z,97608.09
2023-07-16T02:39:43.842Z,97604.16
2023-07-16T02:42:11.324Z,97608.00
2023-07-16T02:44:42.990Z,97618.34
2023-07-16T02:47:10.572Z,97632.28
2023-07-16T02:49:38.155Z,97642.19
2023-07-16T02:52:06.731Z,97646.31
2023-07-16T02:54:34.444Z,97646.63
2023-07-16T02:57:03.318Z,97640.28
2023-07-16T02:59:30.868Z,97625.19
2023-07-16T03:01:58.484Z,97614.72
2023-07-16T03:04:25.978Z,97624.09
2023-07-16T03:06:53.611Z,97628.97
2023-07-16T03:09:21.313Z,97627.72
2023-07-16T03:11:48.841Z,97637.19
2023-07-16T03:14:17.682Z,97658.22
2023-07-16T03:16:45.214Z,97672.44
2023-07-16T03:19:12.813Z,97698.22
2023-07-16T03:21:40.331Z,97695.16
2023-07-16T03:24:07.829Z,97681.22
2023-07-16T03:26:35.447Z,97669.81
2023-07-16T03:29:02.918Z,97665.38
2023-07-16T03:31:31.888Z,97658.25
2023-07-16T03:33:59.533Z,97660.19
2023-07-16T03:36:27.045Z,97665.44
2023-07-16T03:38:54.542Z,97679.16
2023-07-16T03:41:22.205Z,97672.97
2023-07-16T03:43:49.788Z,97676.78
2023-07-16T03:46:17.474Z,97673.00
2023-07-16T03:48:46.905Z,97679.72
2023-07-16T03:51:14.540Z,97693.63
2023-07-16T03:53:42.203Z,97673.63
2023-07-16T03:56:09.714Z,97670.63
2023-07-16T03:58:37.261Z,97675.53
2023-07-16T04:01:04.830Z,97681.28
2023-07-16T04:03:32.547Z,97712.72
2023-07-16T04:06:05.460Z,97713.53
2023-07-16T04:08:33.338Z,97730.53
2023-07-16T04:11:00.782Z,97723.38
2023-07-16T04:13:28.340Z,97741.81
2023-07-16T04:15:56.849Z,97761.50
2023-07-16T04:18:24.430Z,97735.41
2023-07-16T04:20:52.363Z,97751.50
2023-07-16T04:23:21.753Z,97763.19
2023-07-16T04:25:49.297Z,97761.53
2023-07-16T04:28:16.835Z,97773.59
2023-07-16T04:30:44.405Z,97787.88
2023-07-16T04:33:11.978Z,97813.63
2023-07-16T04:35:39.586Z,97801.22
2023-07-16T04:38:08.982Z,97808.75
2023-07-16T04:40:37.821Z,97806.31
2023-07-16T04:43:05.428Z,97801.25
2023-07-16T04:45:33.004Z,97807.22
2023-07-16T04:48:01.110Z,97802.44
2023-07-16T04:50:28.626Z,97802.97
2023-07-16T04:52:56.194Z,97797.06
2023-07-16T04:55:23.679Z,97796.88
2023-07-16T04:57:54.514Z,97816.78
2023-07-16T05:00:22.317Z,97806.63
2023-07-16T05:02:50.096Z,97807.16
2023-07-16T05:05:17.625Z,97814.19
2023-07-16T05:07:45.107Z,97820.47
2023-07-16T05:10:13.252Z,97819.66
2023-07-16T05:12:40.806Z,97818.06
2023-07-16T05:15:11.057Z,97817.56
2023-07-16T05:17:39.013Z,97833.78
2023-07-16T05:20:08.191Z,97846.19
2023-07-16T05:22:35.834Z,97836.53
2023-07-16T05:25:03.517Z,97845.13
2023-07-16T05:27:31.199Z,97849.06
2023-07-16T05:29:58.748Z,97842.09
2023-07-16T05:32:27.581Z,97851.44
2023-07-16T05:34:55.080Z,97851.34
2023-07-16T05:37:22.615Z,97863.81
2023-07-16T05:39:50.184Z,97864.69
2023-07-16T05:42:17.677Z,97861.81
2023-07-16T05:44:46.343Z,97853.69
2023-07-16T05:47:13.927Z,97851.63
2023-07-16T05:49:42.816Z,97848.03
2023-07-16T05:52:10.574Z,97858.88
2023-07-16T05:54:38.425Z,97861.59
2023-07-16T05:57:06.078Z,97842.22
2023-07-16T05:59:35.388Z,97836.06
2023-07-16T06:02:02.978Z,97851.09
2023-07-16T06:04:30.517Z,97869.28
2023-07-16T06:07:00.071Z,97876.03
2023-07-16T06:09:27.584Z,97898.94
2023-07-16T06:11:55.118Z,97887.56
2023-07-16T06:14:22.777Z,97875.50
2023-07-16T06:16:50.565Z,97874.59
2023-07-16T06:19:18.227Z,97892.81
2023-07-16T06:21:45.768Z,97900.00
2023-07-16T06:24:17.181Z,97890.13
2023-07-16T06:26:45.465Z,97886.25
2023-07-16T06:29:12.975Z,97891.91
2023-07-16T06:31:40.579Z,97889.97
2023-07-16T06:34:08.598Z,97897.09
2023-07-16T06:36:36.028Z,97897.06
2023-07-16T06:39:05.750Z,97888.16
2023-07-16T06:41:34.654Z,97889.44
2023-07-16T06:44:02.136Z,97876.13
2023-07-16T06:46:29.784Z,97886.94
2023-07-16T06:48:57.337Z,97890.63
2023-07-16T06:51:24.886Z,97907.09
2023-07-16T06:53:52.500Z,97906.66
2023-07-16T06:56:20.172Z,97907.00
2023-07-16T06:58:49.046Z,97914.41
2023-07-16T07:01:16.649Z,97914.59
2023-07-16T07:03:44.367Z,97924.19
2023-07-16T07:06:12.606Z,97923.28
2023-07-16T07:08:40.100Z,97918.75
2023-07-16T07:11:07.669Z,97915.56
2023-07-16T07:13:35.229Z,97911.13
2023-07-16T07:16:04.388Z,97929.13
2023-07-16T07:18:32.052Z,97924.78
2023-07-16T07:20:59.547Z,97924.25
2023-07-16T07:23:27.247Z,97913.81
2023-07-16T07:25:54.896Z,97911.16
2023-07-16T07:28:22.968Z,97924.19
2023-07-16T07:30:50.592Z,97913.25
2023-07-16T07:33:19.546Z,97912.91
2023-07-16T07:35:47.089Z,97917.75
2023-07-16T07:38:14.847Z,97920.78
2023-07-16T07:40:44.993Z,97917.66
2023-07-16T07:43:12.629Z,97909.06
2023-07-16T07:45:40.123Z,97918.28
2023-07-16T07:48:07.712Z,97904.56
2023-07-16T07:50:36.656Z,97917.41
2023-07-16T07:53:04.437Z,97908.53
2023-07-16T07:55:31.926Z,97905.88
2023-07-16T07:57:59.610Z,97913.47
2023-07-16T08:00:27.135Z,97913.19
2023-07-16T08:02:54.765Z,97907.81
2023-07-16T08:05:22.525Z,97921.72
2023-07-16T08:07:52.072Z,97927.75
2023-07-16T08:10:19.661Z,97930.31
2023-07-16T08:12:47.145Z,97926.66
2023-07-16T08:15:16.173Z,97944.66
2023-07-16T08:17:44.723Z,97939.50
2023-07-16T08:20:13.246Z,97925.34
2023-07-16T08:22:40.962Z,97929.59
2023-07-16T08:25:10.753Z,97932.00
2023-07-16T08:27:39.166Z,97926.16
2023-07-16T08:30:08.255Z,97953.41
2023-07-16T08:32:35.897Z,97953.09
2023-07-16T08:35:04.756Z,97953.34
2023-07-16T08:37:32.266Z,97925.31
2023-07-16T08:39:59.772Z,97928.00
2023-07-16T08:42:28.999Z,97926.75
2023-07-16T08:44:56.488Z,97933.94
2023-07-16T08:47:24.052Z,97934.16
2023-07-16T08:49:57.302Z,97935.31
2023-07-16T08:52:24.997Z,97945.06
2023-07-16T08:54:52.622Z,97943.81
2023-07-16T08:57:24.147Z,97945.94
2023-07-16T08:59:53.575Z,97939.69
2023-07-16T09:02:22.394Z,97933.94
2023-07-16T09:04:55.957Z,97930.31
2023-07-16T09:07:24.082Z,97943.44
2023-07-16T09:09:59.442Z,97944.47
2023-07-16T09:12:27.255Z,97955.25
2023-07-16T09:14:56.469Z,97949.41
2023-07-16T09:17:25.090Z,97944.78
2023-07-16T09:19:53.425Z,97946.09
2023-07-16T09:22:21.880Z,97939.19
2023-07-16T09:24:49.941Z,97934.47
2023-07-16T09:27:17.571Z,97937.47
2023-07-16T09:29:45.175Z,97949.06
2023-07-16T09:32:14.120Z,97924.47
2023-07-16T09:34:41.723Z,97925.28
2023-07-16T09:37:09.225Z,97923.38
2023-07-16T09:39:39.156Z,97930.78
2023-07-16T09:42:08.406Z,97947.72
2023-07-16T09:44:38.607Z,97924.47
2023-07-16T09:47:06.309Z,97923.56
2023-07-16T09:49:35.179Z,97928.03
2023-07-16T09:52:04.023Z,97904.16
2023-07-16T09:54:34.660Z,97901.97
2023-07-16T09:57:04.435Z,97902.31
2023-07-16T09:59:34.835Z,97903.63
2023-07-16T10:02:02.548Z,97925.63
2023-07-16T10:04:41.834Z,97926.50
2023-07-16T10:07:22.619Z,97921.50
2023-07-16T10:09:57.405Z,97913.50
2023-07-16T10:12:26.613Z,97907.47
2023-07-16T10:14:57.512Z,97903.13
2023-07-16T10:17:26.198Z,97909.69
2023-07-16T10:20:01.082Z,97909.94
2023-07-16T10:22:37.967Z,97913.69
2023-07-16T10:25:09.941Z,97904.19
2023-07-16T10:27:37.863Z,97897.09
2023-07-16T10:30:07.082Z,97909.94
2023-07-16T10:32:35.399Z,97898.47
2023-07-16T10:35:05.770Z,97909.59
2023-07-16T10:37:33.738Z,97912.59
2023-07-16T10:40:04.295Z,97906.66
2023-07-16T10:42:32.267Z,97895.66
2023-07-16T10:45:00.878Z,97901.97
2023-07-16T10:47:33.219Z,97901.19
2023-07-16T10:50:02.014Z,97897.38
2023-07-16T10:52:31.037Z,97891.63
2023-07-16T10:54:58.938Z,97885.63
2023-07-16T10:57:27.729Z,97889.97
2023-07-16T10:59:56.571Z,97881.44
2023-07-16T11:02:25.288Z,97874.00
2023-07-16T11:04:58.602Z,97894.63
2023-07-16T11:07:26.304Z,97881.44
2023-07-16T11:09:57.565Z,97880.84
2023-07-16T11:12:26.291Z,97874.63
2023-07-16T11:14:55.683Z,97873.09
2023-07-16T11:17:28.623Z,97867.06
2023-07-16T11:19:56.970Z,97872.81
2023-07-16T11:22:27.003Z,97872.91
2023-07-16T11:24:56.374Z,97883.56
2023-07-16T11:27:25.364Z,97876.06
2023-07-16T11:29:54.019Z,97871.31
2023-07-16T11:32:33.179Z,97877.19
2023-07-16T11:35:02.191Z,97872.88
2023-07-16T11:37:31.729Z,97870.09
2023-07-16T11:40:02.117Z,97855.44
2023-07-16T11:42:33.705Z,97867.25
2023-07-16T11:45:01.659Z,97860.91
2023-07-16T11:47:30.924Z,97858.19
2023-07-16T11:49:59.127Z,97859.00
2023-07-16T11:52:28.616Z,97845.50
2023-07-16T11:54:58.211Z,97847.53
2023-07-16T11:57:27.317Z,97839.69
2023-07-16T11:59:54.823Z,97843.84
2023-07-16T12:02:22.924Z,97838.06
2023-07-16T12:04:50.513Z,97844.13
2023-07-16T12:07:18.005Z,97825.28
2023-07-16T12:09:45.501Z,97844.22
2023-07-16T12:12:13.011Z,97853.88
2023-07-16T12:14:41.865Z,97841.00
2023-07-16T12:17:09.432Z,97835.56
2023-07-16T12:19:37.022Z,97830.03
2023-07-16T12:22:06.316Z,97826.72
2023-07-16T12:24:33.846Z,97829.47
2023-07-16T12:27:01.427Z,97823.06
2023-07-16T12:29:29.068Z,97831.97
2023-07-16T12:31:57.885Z,97813.81
2023-07-16T12:34:25.532Z,97814.41
2023-07-16T12:36:53.136Z,97819.75
2023-07-16T12:39:20.982Z,97813.59
2023-07-16T12:41:48.531Z,97814.00
2023-07-16T12:44:16.052Z,97819.94
2023-07-16T12:46:43.564Z,97814.78
2023-07-16T12:49:14.214Z,97815.66
2023-07-16T12:51:41.722Z,97820.41
2023-07-16T12:54:09.459Z,97809.41
2023-07-16T12:56:36.932Z,97812.28
2023-07-16T12:59:04.555Z,97802.81
2023-07-16T13:01:32.630Z,97808.75
2023-07-16T13:04:00.204Z,97804.75
2023-07-16T13:06:29.489Z,97800.81
2023-07-16T13:08:56.967Z,97816.41
2023-07-16T13:11:26.660Z,97810.81
2023-07-16T13:13:54.318Z,97809.72
2023-07-16T13:16:21.933Z,97806.72
2023-07-16T13:18:49.481Z,97797.84
2023-07-16T13:21:16.985Z,97808.06
2023-07-16T13:23:45.940Z,97811.34
2023-07-16T13:26:13.466Z,97798.56
2023-07-16T13:28:40.949Z,97803.22
2023-07-16T13:31:08.665Z,97812.84
2023-07-16T13:33:36.994Z,97812.84
2023-07-16T13:36:05.478Z,97807.47
2023-07-16T13:38:33.096Z,97809.63
2023-07-16T13:41:01.946Z,97799.25
2023-07-16T13:43:29.685Z,97798.97
2023-07-16T13:45:57.097Z,97798.38
2023-07-16T13:48:24.647Z,97797.59
2023-07-16T13:50:52.227Z,97791.38
2023-07-16T13:53:20.146Z,97786.44
2023-07-16T13:55:47.657Z,97788.72
2023-07-16T13:58:16.693Z,97787.94
2023-07-16T14:00:44.247Z,97805.59
2023-07-16T14:03:14.098Z,97800.44
2023-07-16T14:05:41.642Z,97790.53
2023-07-16T14:08:09.227Z,97789.88
2023-07-16T14:10:36.885Z,97784.28
2023-07-16T14:13:04.449Z,97771.88
2023-07-16T14:15:33.288Z,97778.91
2023-07-16T14:18:00.838Z,97774.06
2023-07-16T14:20:28.577Z,97768.66
2023-07-16T14:22:56.135Z,97772.69
2023-07-16T14:25:23.926Z,97775.16
2023-07-16T14:27:51.285Z,97775.44
2023-07-16T14:30:18.898Z,97779.34
2023-07-16T14:32:47.805Z,97776.03
2023-07-16T14:35:26.323Z,97765.09
2023-07-16T14:38:02.386Z,97758.41
2023-07-16T14:40:30.058Z,97764.38
2023-07-16T14:42:57.501Z,97759.88
2023-07-16T14:45:25.729Z,97768.50
2023-07-16T14:47:54.839Z,97754.97
2023-07-16T14:50:22.445Z,97767.47
2023-07-16T14:52:50.073Z,97764.72
2023-07-16T14:55:17.655Z,97760.53
2023-07-16T14:57:45.167Z,97766.03
2023-07-16T15:00:14.798Z,97770.94
2023-07-16T15:02:43.426Z,97762.00
2023-07-16T15:05:12.605Z,97759.88
2023-07-16T15:07:40.241Z,97755.97
2023-07-16T15:10:09.065Z,97755.38
2023-07-16T15:12:36.576Z,97757.63
2023-07-16T15:15:04.834Z,97750.97
2023-07-16T15:17:32.443Z,97755.13
2023-07-16T15:19:59.945Z,97755.03
2023-07-16T15:22:28.902Z,97756.44
2023-07-16T15:24:58.008Z,97761.41
2023-07-16T15:27:25.807Z,97760.41
2023-07-16T15:29:53.148Z,97745.97
2023-07-16T15:32:20.657Z,97755.72
2023-07-16T15:34:48.141Z,97759.13
2023-07-16T15:37:15.660Z,97771.50
2023-07-16T15:39:44.703Z,97770.31
2023-07-16T15:42:12.356Z,97760.31
2023-07-16T15:44:40.653Z,97769.00
2023-07-16T15:47:08.315Z,97753.66
2023-07-16T15:49:35.762Z,97752.31
2023-07-16T15:52:03.238Z,97751.34
2023-07-16T15:54:30.721Z,97754.22
2023-07-16T15:57:00.220Z,97748.38
2023-07-16T15:59:27.775Z,97756.41
2023-07-16T16:01:55.770Z,97746.22
2023-07-16T16:04:23.450Z,97752.41
2023-07-16T16:06:50.975Z,97744.66
2023-07-16T16:09:18.460Z,97746.44
2023-07-16T16:11:45.970Z,97748.81
2023-07-16T16:14:15.424Z,97753.13
2023-07-16T16:16:56.932Z,97736.69
2023-07-16T16:19:30.715Z,97744.38
2023-07-16T16:22:00.335Z,97724.00
2023-07-16T16:24:29.391Z,97741.22
2023-07-16T16:26:56.989Z,97730.41
2023-07-16T16:29:25.844Z,97728.91
2023-07-16T16:31:53.313Z,97725.94
2023-07-16T16:34:20.961Z,97728.22
2023-07-16T16:36:48.476Z,97730.31
2023-07-16T16:39:17.110Z,97726.78
2023-07-16T16:41:44.990Z,97744.13
2023-07-16T16:44:12.477Z,97729.75
2023-07-16T16:46:41.446Z,97723.06
2023-07-16T16:49:08.992Z,97727.91
2023-07-16T16:51:36.485Z,97731.34
2023-07-16T16:54:04.744Z,97719.69
2023-07-16T16:56:32.242Z,97727.19
2023-07-16T16:58:59.706Z,97723.75
2023-07-16T17:01:27.302Z,97712.75
2023-07-16T17:03:57.768Z,97725.94
2023-07-16T17:06:25.328Z,97731.59
2023-07-16T17:08:52.852Z,97734.13
2023-07-16T17:11:20.496Z,97736.25
2023-07-16T17:13:48.151Z,97719.41
2023-07-16T17:16:15.700Z,97724.97
2023-07-16T17:18:44.566Z,97743.97
2023-07-16T17:21:13.500Z,97741.91
2023-07-16T17:23:41.020Z,97728.47
2023-07-16T17:26:08.582Z,97735.16
2023-07-16T17:28:36.116Z,97741.69
2023-07-16T17:31:03.689Z,97738.09
2023-07-16T17:33:31.298Z,97736.88
2023-07-16T17:35:59.018Z,97741.22
2023-07-16T17:38:27.887Z,97737.22
2023-07-16T17:40:55.366Z,97745.63
2023-07-16T17:43:22.945Z,97748.59
2023-07-16T17:45:50.487Z,97752.56
2023-07-16T17:48:17.992Z,97743.47
2023-07-16T17:50:45.635Z,97748.38
2023-07-16T17:53:13.168Z,97754.41
2023-07-16T17:55:44.013Z,97750.16
2023-07-16T17:58:12.348Z,97757.22
2023-07-16T18:00:39.880Z,97756.06
2023-07-16T18:03:07.608Z,97761.06
2023-07-16T18:05:35.311Z,97763.72
2023-07-16T18:08:02.898Z,97771.91
2023-07-16T18:10:30.526Z,97767.53
2023-07-16T18:12:59.452Z,97772.94
2023-07-16T18:15:26.972Z,97761.84
2023-07-16T18:17:54.589Z,97777.16
2023-07-16T18:20:22.719Z,97770.75
2023-07-16T18:22:50.808Z,97772.00
2023-07-16T18:25:19.065Z,97777.78
2023-07-16T18:27:46.586Z,97777.81
2023-07-16T18:30:15.750Z,97774.47
2023-07-16T18:32:45.431Z,97777.63
2023-07-16T18:35:13.038Z,97773.59
2023-07-16T18:37:40.582Z,97781.72
2023-07-16T18:40:09.472Z,97774.06
2023-07-16T18:42:37.007Z,97774.13
2023-07-16T18:45:07.134Z,97779.44
2023-07-16T18:47:36.200Z,97788.63
2023-07-16T18:50:04.771Z,97781.13
2023-07-16T18:52:32.331Z,97774.94
2023-07-16T18:54:59.849Z,97784.50
2023-07-16T18:57:29.174Z,97786.50
2023-07-16T18:59:56.700Z,97794.91
2023-07-16T19:02:24.257Z,97791.69
2023-07-16T19:04:53.241Z,97790.78
2023-07-16T19:07:20.840Z,97808.00
2023-07-16T19:09:48.327Z,97800.25
2023-07-16T19:12:15.826Z,97813.41
2023-07-16T19:14:43.319Z,97822.53
2023-07-16T19:17:15.286Z,97811.81
2023-07-16T19:19:42.986Z,97814.81
2023-07-16T19:22:11.823Z,97802.59
2023-07-16T19:24:39.645Z,97811.66
2023-07-16T19:27:07.528Z,97821.78
2023-07-16T19:29:35.314Z,97820.47
2023-07-16T19:32:02.709Z,97827.84
2023-07-16T19:34:30.775Z,97836.72
2023-07-16T19:36:58.283Z,97833.88
2023-07-16T19:39:27.154Z,97829.22
2023-07-16T19:41:55.333Z,97824.06
2023-07-16T19:44:22.908Z,97832.56
2023-07-16T19:46:50.414Z,97831.50
2023-07-16T19:49:18.125Z,97827.69
2023-07-16T19:51:45.923Z,97840.06
2023-07-16T19:54:13.644Z,97839.22
2023-07-16T19:56:42.957Z,97848.06
2023-07-16T19:59:10.469Z,97840.91
2023-07-16T20:01:38.072Z,97846.69
2023-07-16T20:04:05.810Z,97844.56
2023-07-16T20:06:35.046Z,97836.91
2023-07-16T20:09:05.748Z,97840.75
2023-07-16T20:11:33.332Z,97847.88
2023-07-16T20:14:02.223Z,97840.75
2023-07-16T20:16:31.345Z,97831.69
2023-07-16T20:18:58.980Z,97836.66
2023-07-16T20:21:26.473Z,97839.16
2023-07-16T20:23:54.717Z,97841.63
2023-07-16T20:26:22.307Z,97843.28
2023-07-16T20:28:50.996Z,97833.97
2023-07-16T20:31:19.899Z,97847.13
2023-07-16T20:33:48.367Z,97841.13
2023-07-16T20:36:16.144Z,97844.13
2023-07-16T20:38:43.736Z,97851.28
2023-07-16T20:41:11.773Z,97849.09
2023-07-16T20:43:39.257Z,97856.53
2023-07-16T20:46:07.117Z,97849.66
2023-07-16T20:48:42.680Z,97862.03
2023-07-16T20:51:11.469Z,97857.09
2023-07-16T20:53:39.354Z,97857.38
2023-07-16T20:56:07.088Z,97857.94
2023-07-16T20:58:34.815Z,97865.31
2023-07-16T21:01:02.595Z,97865.06
2023-07-16T21:03:32.498Z,97875.72
2023-07-16T21:06:01.590Z,97875.44
2023-07-16T21:08:29.165Z,97882.56
2023-07-16T21:10:56.682Z,97881.47
2023-07-16T21:13:24.218Z,97883.66
2023-07-16T21:15:53.886Z,97884.22
2023-07-16T21:18:21.404Z,97890.78
2023-07-16T21:20:49.178Z,97891.34
2023-07-16T21:23:18.039Z,97883.41
2023-07-16T21:25:45.954Z,97896.00
2023-07-16T21:28:13.531Z,97893.25
2023-07-16T21:30:42.318Z,97899.56
2023-07-16T21:33:10.525Z,97901.19
2023-07-16T21:35:38.162Z,97908.59
2023-07-16T21:38:06.189Z,97906.69
2023-07-16T21:40:37.068Z,97903.63
2023-07-16T21:43:11.009Z,97908.53
2023-07-16T21:45:40.812Z,97914.56
2023-07-16T21:48:11.426Z,97923.31
2023-07-16T21:50:39.212Z,97920.53
2023-07-16T21:53:14.975Z,97920.53
2023-07-16T21:55:43.836Z,97926.53
2023-07-16T21:58:11.407Z,97922.72
2023-07-16T22:00:38.945Z,97926.53
2023-07-16T22:03:06.499Z,97941.28
2023-07-16T22:05:34.143Z,97942.38
2023-07-16T22:08:01.637Z,97944.25
2023-07-16T22:10:29.196Z,97934.97
2023-07-16T22:12:58.050Z,97940.69
2023-07-16T22:15:25.755Z,97929.72
2023-07-16T22:17:54.421Z,97934.38
2023-07-16T22:20:26.516Z,97923.72
2023-07-16T22:22:54.647Z,97933.84
2023-07-16T22:25:22.495Z,97933.53
2023-07-16T22:27:49.924Z,97931.63
2023-07-16T22:30:19.105Z,97932.16
2023-07-16T22:32:47.035Z,97931.06
2023-07-16T22:35:14.422Z,97929.66
2023-07-16T22:37:41.951Z,97934.00
2023-07-16T22:40:10.540Z,97931.50
2023-07-16T22:42:38.124Z,97930.41
2023-07-16T22:45:06.534Z,97939.66
2023-07-16T22:47:35.520Z,97940.47
2023-07-16T22:50:03.128Z,97939.94
2023-07-16T22:52:30.643Z,97932.53
2023-07-16T22:54:58.180Z,97925.91
2023-07-16T22:57:25.951Z,97929.19
2023-07-16T22:59:53.655Z,97929.72
2023-07-16T23:02:21.180Z,97931.34
2023-07-16T23:04:50.054Z,97931.06
2023-07-16T23:07:17.563Z,97921.75
2023-07-16T23:09:45.070Z,97924.22
2023-07-16T23:12:12.573Z,97920.91
2023-07-16T23:14:41.688Z,97927.16
2023-07-16T23:17:09.174Z,97926.09
2023-07-16T23:19:36.785Z,97928.53
2023-07-16T23:22:07.162Z,97920.63
2023-07-16T23:24:34.699Z,97926.09
2023-07-16T23:27:02.206Z,97919.50
2023-07-16T23:29:29.908Z,97924.97
2023-07-16T23:31:58.659Z,97918.44
2023-07-16T23:34:26.153Z,97915.44
2023-07-16T23:36:53.706Z,97926.56
2023-07-16T23:39:22.562Z,97914.09
2023-07-16T23:41:50.037Z,97924.47
2023-07-16T23:44:17.551Z,97932.13
2023-07-16T23:46:45.215Z,97917.09
2023-07-16T23:49:12.859Z,97925.06
2023-07-16T23:51:40.828Z,97921.50
2023-07-16T23:54:21.613Z,97926.13
2023-07-16T23:56:51.443Z,97923.66
2023-07-16T23:59:19.096Z,97917.69
